sensor_id;sensor_type;location;lat;lon;timestamp;temperature;humidity
8402;DHT22;4238;48.404;9.498;2023-05-10T04:01:45;11.10;99.90
8402;DHT22;4238;48.404;9.498;2023-05-10T04:04:12;11.20;99.90
8402;DHT22;4238;48.404;9.498;2023-05-10T04:06:39;11.20;99.90
8402;DHT22;4238;48.404;9.498;2023-05-10T04:09:06;11.20;99.90
8402;DHT22;4238;48.404;9.498;2023-05-10T04:11:34;11.20;99.90
8402;DHT22;4238;48.404;9.498;2023-05-10T04:14:00;11.20;99.90
8402;DHT22;4238;48.404;9.498;2023-05-10T04:16:27;11.20;99.90
8402;DHT22;4238;48.404;9.498;2023-05-10T04:18:55;11.20;99.90
8402;DHT22;4238;48.404;9.498;2023-05-10T04:21:23;11.20;99.90
8402;DHT22;4238;48.404;9.498;2023-05-10T04:23:50;11.30;99.90
8402;DHT22;4238;48.404;9.498;2023-05-10T04:26:17;11.30;99.90
8402;DHT22;4238;48.404;9.498;2023-05-10T04:28:43;11.40;99.90
8402;DHT22;4238;48.404;9.498;2023-05-10T04:31:10;11.40;99.90
8402;DHT22;4238;48.404;9.498;2023-05-10T04:33:37;11.40;99.90
8402;DHT22;4238;48.404;9.498;2023-05-10T04:36:06;11.40;99.90
8402;DHT22;4238;48.404;9.498;2023-05-10T04:38:33;11.40;99.90
8402;DHT22;4238;48.404;9.498;2023-05-10T04:41:07;11.40;99.90
8402;DHT22;4238;48.404;9.498;2023-05-10T04:43:34;11.40;99.90
8402;DHT22;4238;48.404;9.498;2023-05-10T04:46:01;11.50;99.90
8402;DHT22;4238;48.404;9.498;2023-05-10T04:48:28;11.50;99.90
8402;DHT22;4238;48.404;9.498;2023-05-10T04:50:55;11.50;99.90
8402;DHT22;4238;48.404;9.498;2023-05-10T04:53:24;11.50;99.90
8402;DHT22;4238;48.404;9.498;2023-05-10T04:55:50;11.50;99.90
8402;DHT22;4238;48.404;9.498;2023-05-10T04:58:17;11.50;99.90
8402;DHT22;4238;48.404;9.498;2023-05-10T05:00:44;11.60;99.90
8402;DHT22;4238;48.404;9.498;2023-05-10T05:03:11;11.60;99.90
8402;DHT22;4238;48.404;9.498;2023-05-10T05:05:38;11.60;99.90
8402;DHT22;4238;48.404;9.498;2023-05-10T05:08:05;11.60;99.90
8402;DHT22;4238;48.404;9.498;2023-05-10T05:10:33;11.60;99.90
8402;DHT22;4238;48.404;9.498;2023-05-10T05:13:00;11.70;99.90
8402;DHT22;4238;48.404;9.498;2023-05-10T05:15:27;11.70;99.90
8402;DHT22;4238;48.404;9.498;2023-05-10T05:17:55;11.70;99.90
8402;DHT22;4238;48.404;9.498;2023-05-10T05:20:22;11.80;99.90
8402;DHT22;4238;48.404;9.498;2023-05-10T05:22:49;11.80;99.90
8402;DHT22;4238;48.404;9.498;2023-05-10T05:25:16;11.80;99.90
8402;DHT22;4238;48.404;9.498;2023-05-10T05:27:44;11.80;99.90
8402;DHT22;4238;48.404;9.498;2023-05-10T05:30:11;11.80;99.90
8402;DHT22;4238;48.404;9.498;2023-05-10T05:32:38;11.80;99.90
8402;DHT22;4238;48.404;9.498;2023-05-10T05:35:05;11.80;99.90
8402;DHT22;4238;48.404;9.498;2023-05-10T05:37:32;11.80;99.90
8402;DHT22;4238;48.404;9.498;2023-05-10T05:39:59;11.70;99.90
8402;DHT22;4238;48.404;9.498;2023-05-10T05:42:27;11.80;99.90
8402;DHT22;4238;48.404;9.498;2023-05-10T05:44:55;11.80;99.90
8402;DHT22;4238;48.404;9.498;2023-05-10T05:47:22;11.80;99.90
8402;DHT22;4238;48.404;9.498;2023-05-10T05:49:49;11.80;99.90
8402;DHT22;4238;48.404;9.498;2023-05-10T05:52:16;11.80;99.90
8402;DHT22;4238;48.404;9.498;2023-05-10T05:54:43;11.80;99.90
8402;DHT22;4238;48.404;9.498;2023-05-10T05:57:10;11.80;99.90
8402;DHT22;4238;48.404;9.498;2023-05-10T05:59:37;11.80;99.90
8402;DHT22;4238;48.404;9.498;2023-05-10T06:02:08;11.80;99.90
8402;DHT22;4238;48.404;9.498;2023-05-10T06:04:35;11.80;99.90
8402;DHT22;4238;48.404;9.498;2023-05-10T06:07:02;11.80;99.90
8402;DHT22;4238;48.404;9.498;2023-05-10T06:09:29;11.80;99.90
8402;DHT22;4238;48.404;9.498;2023-05-10T06:11:56;11.80;99.90
8402;DHT22;4238;48.404;9.498;2023-05-10T06:14:23;11.90;99.90
8402;DHT22;4238;48.404;9.498;2023-05-10T06:16:50;11.90;99.90
8402;DHT22;4238;48.404;9.498;2023-05-10T06:19:18;11.90;99.90
8402;DHT22;4238;48.404;9.498;2023-05-10T06:21:45;12.00;99.90
8402;DHT22;4238;48.404;9.498;2023-05-10T06:24:12;12.10;99.90
8402;DHT22;4238;48.404;9.498;2023-05-10T06:26:39;12.10;99.90
8402;DHT22;4238;48.404;9.498;2023-05-10T06:29:06;12.10;99.90
8402;DHT22;4238;48.404;9.498;2023-05-10T06:31:32;12.10;99.90
8402;DHT22;4238;48.404;9.498;2023-05-10T06:33:59;12.20;99.90
8402;DHT22;4238;48.404;9.498;2023-05-10T06:36:27;12.20;99.90
8402;DHT22;4238;48.404;9.498;2023-05-10T06:38:55;12.20;99.90
8402;DHT22;4238;48.404;9.498;2023-05-10T06:41:21;12.20;99.90
8402;DHT22;4238;48.404;9.498;2023-05-10T06:43:49;12.20;99.90
8402;DHT22;4238;48.404;9.498;2023-05-10T06:46:16;12.30;99.90
8402;DHT22;4238;48.404;9.498;2023-05-10T06:48:43;12.30;99.90
8402;DHT22;4238;48.404;9.498;2023-05-10T06:51:10;12.30;99.90
8402;DHT22;4238;48.404;9.498;2023-05-10T06:53:38;12.20;99.90
8402;DHT22;4238;48.404;9.498;2023-05-10T06:56:05;12.30;99.90
8402;DHT22;4238;48.404;9.498;2023-05-10T06:58:32;12.30;99.90
8402;DHT22;4238;48.404;9.498;2023-05-10T07:01:03;12.40;99.90
8402;DHT22;4238;48.404;9.498;2023-05-10T07:03:30;12.40;99.90
8402;DHT22;4238;48.404;9.498;2023-05-10T07:06:00;12.50;99.90
8402;DHT22;4238;48.404;9.498;2023-05-10T07:08:29;12.40;99.90
8402;DHT22;4238;48.404;9.498;2023-05-10T07:11:01;12.30;99.90
8402;DHT22;4238;48.404;9.498;2023-05-10T07:13:29;12.40;99.90
8402;DHT22;4238;48.404;9.498;2023-05-10T07:15:56;12.50;99.90
8402;DHT22;4238;48.404;9.498;2023-05-10T07:18:23;12.50;99.90
8402;DHT22;4238;48.404;9.498;2023-05-10T07:20:50;12.50;99.90
8402;DHT22;4238;48.404;9.498;2023-05-10T07:23:18;12.50;99.90
8402;DHT22;4238;48.404;9.498;2023-05-10T07:25:45;12.50;99.90
8402;DHT22;4238;48.404;9.498;2023-05-10T07:28:14;12.60;99.90
8402;DHT22;4238;48.404;9.498;2023-05-10T07:30:41;12.60;99.90
8402;DHT22;4238;48.404;9.498;2023-05-10T07:33:08;12.70;99.90
8402;DHT22;4238;48.404;9.498;2023-05-10T07:35:35;12.80;99.90
8402;DHT22;4238;48.404;9.498;2023-05-10T07:38:02;12.90;99.90
8402;DHT22;4238;48.404;9.498;2023-05-10T07:40:30;12.90;97.90
8402;DHT22;4238;48.404;9.498;2023-05-10T07:42:57;12.90;96.30
8402;DHT22;4238;48.404;9.498;2023-05-10T07:45:26;12.80;99.90
8402;DHT22;4238;48.404;9.498;2023-05-10T07:47:53;12.70;99.70
8402;DHT22;4238;48.404;9.498;2023-05-10T07:50:20;12.70;99.90
8402;DHT22;4238;48.404;9.498;2023-05-10T07:52:48;12.70;99.90
8402;DHT22;4238;48.404;9.498;2023-05-10T07:55:14;12.80;99.90
8402;DHT22;4238;48.404;9.498;2023-05-10T07:57:42;12.90;99.80
8402;DHT22;4238;48.404;9.498;2023-05-10T08:00:11;13.00;99.90
8402;DHT22;4238;48.404;9.498;2023-05-10T08:02:40;13.10;95.80
8402;DHT22;4238;48.404;9.498;2023-05-10T08:05:07;13.10;93.60
8402;DHT22;4238;48.404;9.498;2023-05-10T08:07:35;13.10;88.90
8402;DHT22;4238;48.404;9.498;2023-05-10T08:10:02;13.20;90.70
8402;DHT22;4238;48.404;9.498;2023-05-10T08:12:28;13.20;86.10
8402;DHT22;4238;48.404;9.498;2023-05-10T08:14:55;13.20;92.00
8402;DHT22;4238;48.404;9.498;2023-05-10T08:17:22;13.30;90.70
8402;DHT22;4238;48.404;9.498;2023-05-10T08:19:50;13.40;90.70
8402;DHT22;4238;48.404;9.498;2023-05-10T08:22:17;13.50;85.20
8402;DHT22;4238;48.404;9.498;2023-05-10T08:24:44;13.50;90.90
8402;DHT22;4238;48.404;9.498;2023-05-10T08:27:11;13.50;84.50
8402;DHT22;4238;48.404;9.498;2023-05-10T08:29:38;13.50;61.60
8402;DHT22;4238;48.404;9.498;2023-05-10T08:32:05;13.50;54.40
8402;DHT22;4238;48.404;9.498;2023-05-10T08:34:32;13.50;53.20
8402;DHT22;4238;48.404;9.498;2023-05-10T08:37:00;13.60;87.80
8402;DHT22;4238;48.404;9.498;2023-05-10T08:39:27;13.80;73.10
8402;DHT22;4238;48.404;9.498;2023-05-10T08:41:58;13.90;54.80
8402;DHT22;4238;48.404;9.498;2023-05-10T08:44:28;14.00;46.50
8402;DHT22;4238;48.404;9.498;2023-05-10T08:46:56;14.10;32.80
8402;DHT22;4238;48.404;9.498;2023-05-10T08:49:25;14.00;28.90
8402;DHT22;4238;48.404;9.498;2023-05-10T08:51:54;14.10;21.60
8402;DHT22;4238;48.404;9.498;2023-05-10T08:54:23;14.20;17.70
8402;DHT22;4238;48.404;9.498;2023-05-10T08:56:50;14.20;18.10
8402;DHT22;4238;48.404;9.498;2023-05-10T08:59:18;14.30;10.50
8402;DHT22;4238;48.404;9.498;2023-05-10T09:01:46;14.30;12.00
8402;DHT22;4238;48.404;9.498;2023-05-10T09:04:14;14.30;13.70
8402;DHT22;4238;48.404;9.498;2023-05-10T09:06:41;14.30;1.00
8402;DHT22;4238;48.404;9.498;2023-05-10T09:09:08;14.30;1.00
8402;DHT22;4238;48.404;9.498;2023-05-10T09:11:37;14.40;1.00
8402;DHT22;4238;48.404;9.498;2023-05-10T09:14:04;14.50;3.70
8402;DHT22;4238;48.404;9.498;2023-05-10T09:16:31;14.50;1.00
8402;DHT22;4238;48.404;9.498;2023-05-10T09:18:58;14.60;12.10
8402;DHT22;4238;48.404;9.498;2023-05-10T09:21:25;14.70;1.00
8402;DHT22;4238;48.404;9.498;2023-05-10T09:23:52;14.80;1.00
8402;DHT22;4238;48.404;9.498;2023-05-10T09:26:22;14.90;1.00
8402;DHT22;4238;48.404;9.498;2023-05-10T09:28:55;14.90;1.00
8402;DHT22;4238;48.404;9.498;2023-05-10T09:31:23;14.90;1.00
8402;DHT22;4238;48.404;9.498;2023-05-10T09:33:51;15.00;1.00
8402;DHT22;4238;48.404;9.498;2023-05-10T09:36:18;14.90;1.00
8402;DHT22;4238;48.404;9.498;2023-05-10T09:38:46;14.90;1.00
8402;DHT22;4238;48.404;9.498;2023-05-10T09:41:17;15.00;1.00
8402;DHT22;4238;48.404;9.498;2023-05-10T09:43:44;15.00;1.00
8402;DHT22;4238;48.404;9.498;2023-05-10T09:46:12;15.00;1.00
8402;DHT22;4238;48.404;9.498;2023-05-10T09:48:42;15.10;1.00
8402;DHT22;4238;48.404;9.498;2023-05-10T09:51:09;15.20;1.00
8402;DHT22;4238;48.404;9.498;2023-05-10T09:53:36;15.30;1.00
8402;DHT22;4238;48.404;9.498;2023-05-10T09:56:03;15.30;1.00
8402;DHT22;4238;48.404;9.498;2023-05-10T09:58:30;15.20;1.00
8402;DHT22;4238;48.404;9.498;2023-05-10T10:00:57;15.20;1.00
8402;DHT22;4238;48.404;9.498;2023-05-10T10:03:25;15.30;1.00
8402;DHT22;4238;48.404;9.498;2023-05-10T10:05:52;15.30;1.00
8402;DHT22;4238;48.404;9.498;2023-05-10T10:08:21;15.50;1.00
8402;DHT22;4238;48.404;9.498;2023-05-10T10:10:49;15.60;1.00
8402;DHT22;4238;48.404;9.498;2023-05-10T10:13:16;15.30;1.00
8402;DHT22;4238;48.404;9.498;2023-05-10T10:15:43;15.20;1.00
8402;DHT22;4238;48.404;9.498;2023-05-10T10:18:13;15.20;1.00
8402;DHT22;4238;48.404;9.498;2023-05-10T10:20:41;15.10;1.00
8402;DHT22;4238;48.404;9.498;2023-05-10T10:23:08;14.90;1.00
8402;DHT22;4238;48.404;9.498;2023-05-10T10:25:35;14.80;1.00
8402;DHT22;4238;48.404;9.498;2023-05-10T10:28:12;14.70;1.00
8402;DHT22;4238;48.404;9.498;2023-05-10T10:30:43;14.70;1.00
8402;DHT22;4238;48.404;9.498;2023-05-10T10:33:30;14.50;1.00
8402;DHT22;4238;48.404;9.498;2023-05-10T10:36:02;14.20;1.00
8402;DHT22;4238;48.404;9.498;2023-05-10T10:38:37;14.10;1.00
8402;DHT22;4238;48.404;9.498;2023-05-10T10:41:10;13.80;1.00
8402;DHT22;4238;48.404;9.498;2023-05-10T10:43:37;13.80;1.00
8402;DHT22;4238;48.404;9.498;2023-05-10T10:46:11;13.70;1.00
8402;DHT22;4238;48.404;9.498;2023-05-10T10:48:39;13.60;1.00
8402;DHT22;4238;48.404;9.498;2023-05-10T10:51:08;13.50;1.00
8402;DHT22;4238;48.404;9.498;2023-05-10T10:53:37;13.40;1.00
8402;DHT22;4238;48.404;9.498;2023-05-10T10:56:05;13.20;19.90
8402;DHT22;4238;48.404;9.498;2023-05-10T10:58:35;13.10;51.60
8402;DHT22;4238;48.404;9.498;2023-05-10T11:01:14;13.10;65.50
8402;DHT22;4238;48.404;9.498;2023-05-10T11:04:16;13.00;40.00
8402;DHT22;4238;48.404;9.498;2023-05-10T11:06:43;13.00;46.50
8402;DHT22;4238;48.404;9.498;2023-05-10T11:09:11;13.00;53.00
8402;DHT22;4238;48.404;9.498;2023-05-10T11:11:49;13.00;51.60
8402;DHT22;4238;48.404;9.498;2023-05-10T11:14:20;13.00;50.10
8402;DHT22;4238;48.404;9.498;2023-05-10T11:16:47;13.20;45.60
8402;DHT22;4238;48.404;9.498;2023-05-10T11:19:16;13.30;25.90
8402;DHT22;4238;48.404;9.498;2023-05-10T11:21:48;13.40;35.40
8402;DHT22;4238;48.404;9.498;2023-05-10T11:24:17;13.50;31.00
8402;DHT22;4238;48.404;9.498;2023-05-10T11:26:44;13.70;24.70
8402;DHT22;4238;48.404;9.498;2023-05-10T11:29:12;13.80;16.80
8402;DHT22;4238;48.404;9.498;2023-05-10T11:31:43;13.90;9.60
8402;DHT22;4238;48.404;9.498;2023-05-10T11:34:10;14.00;1.00
8402;DHT22;4238;48.404;9.498;2023-05-10T11:36:38;14.10;1.00
8402;DHT22;4238;48.404;9.498;2023-05-10T11:39:06;14.20;1.00
8402;DHT22;4238;48.404;9.498;2023-05-10T11:41:33;14.30;1.00
8402;DHT22;4238;48.404;9.498;2023-05-10T11:44:02;14.30;1.00
8402;DHT22;4238;48.404;9.498;2023-05-10T11:46:29;14.40;1.00
8402;DHT22;4238;48.404;9.498;2023-05-10T11:48:58;14.40;1.00
8402;DHT22;4238;48.404;9.498;2023-05-10T11:51:27;14.30;1.00
8402;DHT22;4238;48.404;9.498;2023-05-10T11:53:55;14.30;1.00
8402;DHT22;4238;48.404;9.498;2023-05-10T11:56:24;14.30;1.00
8402;DHT22;4238;48.404;9.498;2023-05-10T11:58:53;14.30;1.00
8402;DHT22;4238;48.404;9.498;2023-05-10T12:01:21;14.30;1.00
8402;DHT22;4238;48.404;9.498;2023-05-10T12:03:49;14.30;1.00
8402;DHT22;4238;48.404;9.498;2023-05-10T12:06:17;14.40;1.00
8402;DHT22;4238;48.404;9.498;2023-05-10T12:08:45;14.50;1.00
8402;DHT22;4238;48.404;9.498;2023-05-10T12:11:12;14.40;1.00
8402;DHT22;4238;48.404;9.498;2023-05-10T12:13:43;14.00;1.00
8402;DHT22;4238;48.404;9.498;2023-05-10T12:16:16;13.70;1.00
8402;DHT22;4238;48.404;9.498;2023-05-10T12:18:43;13.40;1.00
8402;DHT22;4238;48.404;9.498;2023-05-10T12:21:11;13.10;1.00
8402;DHT22;4238;48.404;9.498;2023-05-10T12:23:38;12.80;1.00
8402;DHT22;4238;48.404;9.498;2023-05-10T12:26:06;12.70;1.00
8402;DHT22;4238;48.404;9.498;2023-05-10T12:28:36;12.60;18.20
8402;DHT22;4238;48.404;9.498;2023-05-10T12:31:05;12.60;29.80
8402;DHT22;4238;48.404;9.498;2023-05-10T12:33:36;12.70;28.30
8402;DHT22;4238;48.404;9.498;2023-05-10T12:36:05;12.70;33.60
8402;DHT22;4238;48.404;9.498;2023-05-10T12:38:33;12.80;26.80
8402;DHT22;4238;48.404;9.498;2023-05-10T12:41:02;12.90;11.80
8402;DHT22;4238;48.404;9.498;2023-05-10T12:43:30;12.90;1.00
8402;DHT22;4238;48.404;9.498;2023-05-10T12:45:57;12.90;1.00
8402;DHT22;4238;48.404;9.498;2023-05-10T12:48:25;13.00;5.40
8402;DHT22;4238;48.404;9.498;2023-05-10T12:50:54;13.10;1.00
8402;DHT22;4238;48.404;9.498;2023-05-10T12:53:21;13.30;1.00
8402;DHT22;4238;48.404;9.498;2023-05-10T12:55:47;13.40;1.00
8402;DHT22;4238;48.404;9.498;2023-05-10T12:58:14;13.50;1.00
8402;DHT22;4238;48.404;9.498;2023-05-10T13:00:41;13.70;1.00
8402;DHT22;4238;48.404;9.498;2023-05-10T13:03:09;13.70;1.00
8402;DHT22;4238;48.404;9.498;2023-05-10T13:05:38;13.70;1.00
8402;DHT22;4238;48.404;9.498;2023-05-10T13:08:05;13.70;1.00
8402;DHT22;4238;48.404;9.498;2023-05-10T13:10:32;13.70;99.90
8402;DHT22;4238;48.404;9.498;2023-05-10T13:12:59;13.60;99.90
8402;DHT22;4238;48.404;9.498;2023-05-10T13:15:27;13.60;99.90
8402;DHT22;4238;48.404;9.498;2023-05-10T13:17:54;13.70;1.00
8402;DHT22;4238;48.404;9.498;2023-05-10T13:20:21;13.80;1.00
8402;DHT22;4238;48.404;9.498;2023-05-10T13:22:49;13.90;8.60
8402;DHT22;4238;48.404;9.498;2023-05-10T13:25:16;13.70;1.00
8402;DHT22;4238;48.404;9.498;2023-05-10T13:27:43;13.80;1.00
8402;DHT22;4238;48.404;9.498;2023-05-10T13:30:10;13.80;99.90
8402;DHT22;4238;48.404;9.498;2023-05-10T13:32:38;13.90;1.00
8402;DHT22;4238;48.404;9.498;2023-05-10T13:35:05;14.00;1.00
8402;DHT22;4238;48.404;9.498;2023-05-10T13:37:32;14.10;1.00
8402;DHT22;4238;48.404;9.498;2023-05-10T13:40:05;14.10;1.00
8402;DHT22;4238;48.404;9.498;2023-05-10T13:42:32;14.10;99.90
8402;DHT22;4238;48.404;9.498;2023-05-10T13:45:00;14.20;1.00
8402;DHT22;4238;48.404;9.498;2023-05-10T13:47:27;14.30;1.00
8402;DHT22;4238;48.404;9.498;2023-05-10T13:49:54;14.30;99.90
8402;DHT22;4238;48.404;9.498;2023-05-10T13:52:21;14.30;99.90
8402;DHT22;4238;48.404;9.498;2023-05-10T13:54:48;14.20;1.00
8402;DHT22;4238;48.404;9.498;2023-05-10T13:57:18;14.20;1.00
8402;DHT22;4238;48.404;9.498;2023-05-10T13:59:45;14.20;99.90
8402;DHT22;4238;48.404;9.498;2023-05-10T14:02:12;14.30;1.00
8402;DHT22;4238;48.404;9.498;2023-05-10T14:04:39;14.30;99.90
8402;DHT22;4238;48.404;9.498;2023-05-10T14:07:06;14.20;1.00
8402;DHT22;4238;48.404;9.498;2023-05-10T14:09:33;14.20;99.90
8402;DHT22;4238;48.404;9.498;2023-05-10T14:12:00;14.20;99.90
8402;DHT22;4238;48.404;9.498;2023-05-10T14:14:28;14.10;4.70
8402;DHT22;4238;48.404;9.498;2023-05-10T14:16:55;14.10;99.90
8402;DHT22;4238;48.404;9.498;2023-05-10T14:19:22;14.10;1.00
8402;DHT22;4238;48.404;9.498;2023-05-10T14:21:49;14.10;99.90
8402;DHT22;4238;48.404;9.498;2023-05-10T14:24:17;14.10;99.90
8402;DHT22;4238;48.404;9.498;2023-05-10T14:26:44;14.10;99.90
8402;DHT22;4238;48.404;9.498;2023-05-10T14:29:11;14.10;1.00
8402;DHT22;4238;48.404;9.498;2023-05-10T14:31:40;14.10;90.40
8402;DHT22;4238;48.404;9.498;2023-05-10T14:34:07;14.20;99.90
8402;DHT22;4238;48.404;9.498;2023-05-10T14:36:34;14.20;99.90
8402;DHT22;4238;48.404;9.498;2023-05-10T14:39:01;14.30;4.90
8402;DHT22;4238;48.404;9.498;2023-05-10T14:41:28;14.30;70.10
8402;DHT22;4238;48.404;9.498;2023-05-10T14:43:55;14.30;1.00
8402;DHT22;4238;48.404;9.498;2023-05-10T14:46:22;14.40;1.00
8402;DHT22;4238;48.404;9.498;2023-05-10T14:48:51;14.50;99.90
8402;DHT22;4238;48.404;9.498;2023-05-10T14:51:18;14.30;99.90
8402;DHT22;4238;48.404;9.498;2023-05-10T14:53:47;14.40;1.00
8402;DHT22;4238;48.404;9.498;2023-05-10T14:56:14;14.40;99.90
8402;DHT22;4238;48.404;9.498;2023-05-10T14:58:41;14.40;99.90
8402;DHT22;4238;48.404;9.498;2023-05-10T15:01:07;14.50;73.70
8402;DHT22;4238;48.404;9.498;2023-05-10T15:03:34;14.50;99.90
8402;DHT22;4238;48.404;9.498;2023-05-10T15:06:03;14.30;1.00
8402;DHT22;4238;48.404;9.498;2023-05-10T15:08:30;14.40;1.00
8402;DHT22;4238;48.404;9.498;2023-05-10T15:10:57;14.40;99.90
8402;DHT22;4238;48.404;9.498;2023-05-10T15:13:24;14.30;97.00
8402;DHT22;4238;48.404;9.498;2023-05-10T15:15:51;14.30;99.90
8402;DHT22;4238;48.404;9.498;2023-05-10T15:18:18;14.40;99.90
8402;DHT22;4238;48.404;9.498;2023-05-10T15:20:45;14.30;1.00
8402;DHT22;4238;48.404;9.498;2023-05-10T15:23:13;14.40;99.90
8402;DHT22;4238;48.404;9.498;2023-05-10T15:25:40;14.30;1.00
8402;DHT22;4238;48.404;9.498;2023-05-10T15:28:07;14.20;1.00
8402;DHT22;4238;48.404;9.498;2023-05-10T15:30:34;14.30;99.90
8402;DHT22;4238;48.404;9.498;2023-05-10T15:33:01;14.30;1.00
8402;DHT22;4238;48.404;9.498;2023-05-10T15:35:28;14.30;99.90
8402;DHT22;4238;48.404;9.498;2023-05-10T15:37:55;14.20;99.90
8402;DHT22;4238;48.404;9.498;2023-05-10T15:40:23;14.20;1.00
8402;DHT22;4238;48.404;9.498;2023-05-10T15:42:50;14.20;99.90
8402;DHT22;4238;48.404;9.498;2023-05-10T15:45:17;14.10;99.90
8402;DHT22;4238;48.404;9.498;2023-05-10T15:47:43;14.20;99.90
8402;DHT22;4238;48.404;9.498;2023-05-10T15:50:10;14.20;99.90
8402;DHT22;4238;48.404;9.498;2023-05-10T15:52:37;14.10;1.00
8402;DHT22;4238;48.404;9.498;2023-05-10T15:55:05;14.10;99.90
8402;DHT22;4238;48.404;9.498;2023-05-10T15:57:38;14.10;1.00
8402;DHT22;4238;48.404;9.498;2023-05-10T16:00:06;14.10;1.00
8402;DHT22;4238;48.404;9.498;2023-05-10T16:02:34;14.10;99.90
8402;DHT22;4238;48.404;9.498;2023-05-10T16:05:00;14.00;1.00
8402;DHT22;4238;48.404;9.498;2023-05-10T16:07:27;14.00;1.00
8402;DHT22;4238;48.404;9.498;2023-05-10T16:09:54;14.00;1.00
8402;DHT22;4238;48.404;9.498;2023-05-10T16:12:21;14.00;1.00
8402;DHT22;4238;48.404;9.498;2023-05-10T16:14:49;13.90;1.00
8402;DHT22;4238;48.404;9.498;2023-05-10T16:17:16;13.80;1.00
8402;DHT22;4238;48.404;9.498;2023-05-10T16:19:44;13.80;1.00
8402;DHT22;4238;48.404;9.498;2023-05-10T16:22:12;13.80;1.00
8402;DHT22;4238;48.404;9.498;2023-05-10T16:24:39;13.60;1.00
8402;DHT22;4238;48.404;9.498;2023-05-10T16:27:06;13.40;1.00
8402;DHT22;4238;48.404;9.498;2023-05-10T16:29:33;13.20;1.00
8402;DHT22;4238;48.404;9.498;2023-05-10T16:32:02;13.10;1.00
8402;DHT22;4238;48.404;9.498;2023-05-10T16:34:29;13.10;1.00
8402;DHT22;4238;48.404;9.498;2023-05-10T16:36:55;13.10;1.00
8402;DHT22;4238;48.404;9.498;2023-05-10T16:39:22;13.10;1.00
8402;DHT22;4238;48.404;9.498;2023-05-10T16:41:49;13.00;1.00
8402;DHT22;4238;48.404;9.498;2023-05-10T16:44:16;12.80;2.70
8402;DHT22;4238;48.404;9.498;2023-05-10T16:46:43;12.80;1.00
8402;DHT22;4238;48.404;9.498;2023-05-10T16:49:12;12.90;1.00
8402;DHT22;4238;48.404;9.498;2023-05-10T16:51:39;12.80;1.00
8402;DHT22;4238;48.404;9.498;2023-05-10T16:54:06;12.90;1.00
8402;DHT22;4238;48.404;9.498;2023-05-10T16:56:33;12.90;1.00
8402;DHT22;4238;48.404;9.498;2023-05-10T16:59:00;13.00;1.00
8402;DHT22;4238;48.404;9.498;2023-05-10T17:01:27;12.90;1.00
8402;DHT22;4238;48.404;9.498;2023-05-10T17:03:54;12.90;1.00
8402;DHT22;4238;48.404;9.498;2023-05-10T17:06:22;13.00;1.00
8402;DHT22;4238;48.404;9.498;2023-05-10T17:08:49;13.00;1.00
8402;DHT22;4238;48.404;9.498;2023-05-10T17:11:16;12.90;1.00
8402;DHT22;4238;48.404;9.498;2023-05-10T17:13:44;13.20;39.10
8402;DHT22;4238;48.404;9.498;2023-05-10T17:16:11;14.30;1.00
8402;DHT22;4238;48.404;9.498;2023-05-10T17:18:39;14.70;1.00
8402;DHT22;4238;48.404;9.498;2023-05-10T17:21:06;14.90;1.00
8402;DHT22;4238;48.404;9.498;2023-05-10T17:23:34;15.60;1.00
8402;DHT22;4238;48.404;9.498;2023-05-10T17:26:03;15.80;1.00
8402;DHT22;4238;48.404;9.498;2023-05-10T17:28:30;16.20;99.90
8402;DHT22;4238;48.404;9.498;2023-05-10T17:30:57;16.50;99.90
8402;DHT22;4238;48.404;9.498;2023-05-10T17:33:24;16.60;99.90
8402;DHT22;4238;48.404;9.498;2023-05-10T17:35:51;16.30;1.00
8402;DHT22;4238;48.404;9.498;2023-05-10T17:38:18;16.00;1.00
8402;DHT22;4238;48.404;9.498;2023-05-10T17:40:46;15.80;99.90
8402;DHT22;4238;48.404;9.498;2023-05-10T17:43:13;15.50;30.90
8402;DHT22;4238;48.404;9.498;2023-05-10T17:45:40;15.10;99.90
8402;DHT22;4238;48.404;9.498;2023-05-10T17:48:08;14.80;99.90
8402;DHT22;4238;48.404;9.498;2023-05-10T17:50:35;14.50;1.00
8402;DHT22;4238;48.404;9.498;2023-05-10T17:53:02;14.30;1.00
8402;DHT22;4238;48.404;9.498;2023-05-10T17:55:29;14.10;1.00
8402;DHT22;4238;48.404;9.498;2023-05-10T17:57:59;14.00;1.00
8402;DHT22;4238;48.404;9.498;2023-05-10T18:00:26;13.80;1.00
8402;DHT22;4238;48.404;9.498;2023-05-10T18:02:53;13.70;1.00
8402;DHT22;4238;48.404;9.498;2023-05-10T18:05:20;13.60;1.00
8402;DHT22;4238;48.404;9.498;2023-05-10T18:07:47;13.40;1.00
8402;DHT22;4238;48.404;9.498;2023-05-10T18:10:13;13.30;1.00
8402;DHT22;4238;48.404;9.498;2023-05-10T18:12:40;13.30;1.00
8402;DHT22;4238;48.404;9.498;2023-05-10T18:15:10;13.20;1.00
8402;DHT22;4238;48.404;9.498;2023-05-10T18:17:37;13.10;1.00
8402;DHT22;4238;48.404;9.498;2023-05-10T18:20:04;13.10;1.00
8402;DHT22;4238;48.404;9.498;2023-05-10T18:22:32;12.90;1.00
8402;DHT22;4238;48.404;9.498;2023-05-10T18:24:59;12.90;1.00
8402;DHT22;4238;48.404;9.498;2023-05-10T18:27:26;12.80;1.00
8402;DHT22;4238;48.404;9.498;2023-05-10T18:29:53;12.80;1.00
8402;DHT22;4238;48.404;9.498;2023-05-10T18:32:22;12.70;1.00
8402;DHT22;4238;48.404;9.498;2023-05-10T18:34:49;12.60;1.00
8402;DHT22;4238;48.404;9.498;2023-05-10T18:37:16;12.50;1.00
8402;DHT22;4238;48.404;9.498;2023-05-10T18:39:43;12.40;1.00
8402;DHT22;4238;48.404;9.498;2023-05-10T18:42:10;12.40;1.00
8402;DHT22;4238;48.404;9.498;2023-05-10T18:44:37;12.30;1.00
8402;DHT22;4238;48.404;9.498;2023-05-10T18:47:04;12.20;1.00
8402;DHT22;4238;48.404;9.498;2023-05-10T18:49:32;12.20;1.00
8402;DHT22;4238;48.404;9.498;2023-05-10T18:51:59;12.10;1.00
8402;DHT22;4238;48.404;9.498;2023-05-10T18:54:26;12.00;1.00
8402;DHT22;4238;48.404;9.498;2023-05-10T18:56:54;11.90;1.00
8402;DHT22;4238;48.404;9.498;2023-05-10T18:59:23;11.90;6.20
8402;DHT22;4238;48.404;9.498;2023-05-10T19:01:52;11.80;7.90
8402;DHT22;4238;48.404;9.498;2023-05-10T19:04:19;11.70;16.90
8402;DHT22;4238;48.404;9.498;2023-05-10T19:06:47;11.60;21.70
8402;DHT22;4238;48.404;9.498;2023-05-10T19:09:14;11.50;37.10
8402;DHT22;4238;48.404;9.498;2023-05-10T19:11:44;11.50;44.90
8402;DHT22;4238;48.404;9.498;2023-05-10T19:14:11;11.30;51.00
8402;DHT22;4238;48.404;9.498;2023-05-10T19:16:38;11.30;58.40
8402;DHT22;4238;48.404;9.498;2023-05-10T19:19:05;11.20;62.70
8402;DHT22;4238;48.404;9.498;2023-05-10T19:21:32;11.30;54.80
8402;DHT22;4238;48.404;9.498;2023-05-10T19:24:01;11.30;51.30
8402;DHT22;4238;48.404;9.498;2023-05-10T19:26:28;11.30;39.80
8402;DHT22;4238;48.404;9.498;2023-05-10T19:28:55;11.40;37.60
8402;DHT22;4238;48.404;9.498;2023-05-10T19:31:22;11.50;33.90
8402;DHT22;4238;48.404;9.498;2023-05-10T19:33:49;11.40;49.00
8402;DHT22;4238;48.404;9.498;2023-05-10T19:36:17;11.40;45.30
8402;DHT22;4238;48.404;9.498;2023-05-10T19:38:44;11.40;38.20
8402;DHT22;4238;48.404;9.498;2023-05-10T19:41:12;11.40;50.00
8402;DHT22;4238;48.404;9.498;2023-05-10T19:43:40;11.40;46.30
8402;DHT22;4238;48.404;9.498;2023-05-10T19:46:07;11.20;57.30
8402;DHT22;4238;48.404;9.498;2023-05-10T19:48:34;11.20;60.90
8402;DHT22;4238;48.404;9.498;2023-05-10T19:51:03;11.20;64.90
8402;DHT22;4238;48.404;9.498;2023-05-10T19:53:30;11.20;66.80
8402;DHT22;4238;48.404;9.498;2023-05-10T19:56:02;11.20;66.20
8402;DHT22;4238;48.404;9.498;2023-05-10T19:58:31;11.20;61.60
8402;DHT22;4238;48.404;9.498;2023-05-10T20:00:58;11.10;58.30
8402;DHT22;4238;48.404;9.498;2023-05-10T20:03:24;11.20;59.20
8402;DHT22;4238;48.404;9.498;2023-05-10T20:05:51;11.20;55.10
8402;DHT22;4238;48.404;9.498;2023-05-10T20:08:18;11.20;56.40
8402;DHT22;4238;48.404;9.498;2023-05-10T20:10:45;11.10;58.80
8402;DHT22;4238;48.404;9.498;2023-05-10T20:13:12;11.00;65.00